Terminal Aerodrome Forecast
Issued by NWS Brownsville, TX

Home | Current Version | Previous Version | Text Only | Print | Product List | Glossary On
Versions: 1 2 3 4 5 6 7 8 9 10 11 12 13 14 15 16 17 18 19 20 21 22 23 24 25 26 27 28 29 30 31 32 33
000
FTUS44 KBRO 201120
TAFBRO
TAF
KBRO 201120Z 2012/2112 13003KT P6SM FEW025
     FM201500 14009KT P6SM SCT025
     FM201800 12011KT P6SM SCT040
     FM210100 09006KT P6SM FEW025
     FM210800 10003KT P6SM SCT015=

USA.gov is the U.S. government's official web portal to all federal, state and local government web resources and services.